Time;durP1;ratioP1;P1;durP2;ratioP2;P2;SDS_P1;SDS_P2;PMS_P1;PMS_P2;Temp;Humidity;BMP_temperature;BMP_pressure;BME280_temperature;BME280_humidity;BME280_pressure;Samples;Min_cycle;Max_cycle;Signal;HPM_P1;HPM_P2
2021/11/08 00:01:18;;;;;;;41.05;22.52;;;;;;;9.91;75.61;94985.28;5053749;28;20560;-71
2021/11/08 00:03:47;;;;;;;33.58;19.48;;;;;;;9.89;75.68;94981.97;5069978;28;20028;-72
2021/11/08 00:06:14;;;;;;;32.55;19.40;;;;;;;9.87;75.27;94968.31;5069997;28;20035;-71
2021/11/08 00:08:40;;;;;;;29.08;18.00;;;;;;;9.88;75.50;94980.34;5069739;28;20029;-72
2021/11/08 00:11:06;;;;;;;32.75;17.98;;;;;;;9.94;75.34;94978.09;5053207;28;20253;-71
2021/11/08 00:13:31;;;;;;;28.27;17.42;;;;;;;9.95;75.27;94976.34;5070925;28;20024;-71
2021/11/08 00:21:02;;;;;;;;;;;;;;;9.95;75.42;94976.34;5074505;28;20102;-71
2021/11/08 00:23:28;;;;;;;31.63;17.33;;;;;;;9.93;75.55;94968.66;5089916;28;20504;-71
2021/11/08 00:25:54;;;;;;;30.60;18.10;;;;;;;9.87;75.36;94963.13;5072985;28;20058;-72
2021/11/08 00:28:20;;;;;;;29.90;18.75;;;;;;;9.80;75.43;94968.78;5090311;28;20023;-71
2021/11/08 00:30:46;;;;;;;29.67;17.88;;;;;;;9.75;75.33;94955.34;5056231;28;20031;-71
2021/11/08 00:33:15;;;;;;;28.42;19.17;;;;;;;9.70;75.27;94954.06;5073209;28;20101;-72
2021/11/08 00:35:44;;;;;;;38.30;21.60;;;;;;;9.69;75.52;94961.00;5089890;28;20099;-71
2021/11/08 00:38:10;;;;;;;29.83;19.80;;;;;;;9.63;75.33;94972.66;5073152;28;20036;-71
2021/11/08 00:40:35;;;;;;;37.55;23.25;;;;;;;9.61;75.75;94950.38;5089722;28;20028;-71
2021/11/08 00:43:02;;;;;;;37.45;23.33;;;;;;;9.70;77.50;94948.88;5090095;28;20387;-72
2021/11/08 00:45:27;;;;;;;38.33;23.02;;;;;;;9.83;77.90;94945.22;5089711;28;20024;-71
2021/11/08 00:47:55;;;;;;;35.30;21.33;;;;;;;9.90;77.61;94950.75;5090191;28;20139;-71
2021/11/08 00:50:20;;;;;;;32.08;21.17;;;;;;;9.94;77.37;94943.53;5089702;28;20122;-70
2021/11/08 00:52:48;;;;;;;35.17;22.10;;;;;;;10.00;76.70;94948.22;5073316;28;20498;-71
2021/11/08 00:55:13;;;;;;;31.48;20.17;;;;;;;10.04;76.44;94936.69;5089709;28;20090;-71
2021/11/08 00:57:40;;;;;;;32.90;19.75;;;;;;;10.05;76.34;94931.34;5089959;28;20040;-71
2021/11/08 01:00:07;;;;;;;32.55;20.52;;;;;;;10.10;76.29;94928.41;5072818;28;20056;-72
2021/11/08 01:02:33;;;;;;;33.45;20.95;;;;;;;10.13;75.88;94922.97;5091283;28;20107;-72
2021/11/08 01:05:00;;;;;;;33.22;21.15;;;;;;;10.14;75.99;94914.25;5055835;28;20031;-71
2021/11/08 01:07:26;;;;;;;32.95;20.80;;;;;;;10.15;76.34;94915.06;5090643;28;20032;-71
2021/11/08 01:09:52;;;;;;;33.05;20.20;;;;;;;10.13;75.85;94907.41;5089426;28;20425;-71
2021/11/08 01:12:17;;;;;;;30.63;20.20;;;;;;;10.20;75.78;94911.16;5089545;28;20036;-72
2021/11/08 01:14:44;;;;;;;33.47;19.73;;;;;;;10.23;75.74;94921.31;5090577;28;20024;-72
2021/11/08 01:17:09;;;;;;;33.08;20.65;;;;;;;10.17;75.45;94919.19;5093460;28;20032;-71
2021/11/08 01:19:35;;;;;;;33.45;21.15;;;;;;;10.16;75.65;94920.13;5063955;28;20055;-72
2021/11/08 01:22:19;;;;;;;35.78;21.52;;;;;;;10.17;75.73;94927.00;5073053;28;20043;-72
2021/11/08 01:24:53;;;;;;;35.13;21.92;;;;;;;10.13;75.62;94917.78;5058362;28;20028;-72
2021/11/08 01:27:24;;;;;;;32.08;19.90;;;;;;;10.16;75.48;94925.31;5041808;28;20044;-71
2021/11/08 01:29:50;;;;;;;31.98;20.98;;;;;;;10.12;75.75;94910.94;5073917;28;20031;-71
2021/11/08 01:32:15;;;;;;;29.88;19.05;;;;;;;10.18;75.22;94918.25;5074141;28;20032;-72
2021/11/08 01:34:41;;;;;;;34.78;21.00;;;;;;;10.19;75.21;94916.47;5072673;28;20028;-73
2021/11/08 01:37:07;;;;;;;33.75;20.95;;;;;;;10.21;75.36;94904.19;5056059;28;20033;-72
2021/11/08 01:39:33;;;;;;;32.00;19.98;;;;;;;10.21;75.31;94901.59;5073952;28;20024;-72
2021/11/08 01:42:00;;;;;;;30.85;21.45;;;;;;;10.22;75.13;94898.03;5072921;28;20024;-73
2021/11/08 01:44:28;;;;;;;32.88;21.17;;;;;;;10.13;75.07;94886.63;5072543;28;20040;-72
2021/11/08 01:46:55;;;;;;;31.83;18.77;;;;;;;10.28;74.99;94900.22;5073933;28;20032;-73
2021/11/08 01:49:20;;;;;;;31.10;20.30;;;;;;;10.31;74.78;94889.56;5055988;28;20032;-72
2021/11/08 01:51:46;;;;;;;35.40;21.23;;;;;;;10.28;74.57;94888.03;5055737;28;20097;-72
2021/11/08 01:54:12;;;;;;;37.03;20.98;;;;;;;10.28;74.69;94879.44;5072392;28;20036;-72
2021/11/08 01:56:37;;;;;;;34.63;21.15;;;;;;;10.32;74.64;94878.22;5072359;28;20032;-72
2021/11/08 01:59:03;;;;;;;36.72;19.75;;;;;;;10.40;74.51;94885.41;5055637;28;20028;-72
2021/11/08 02:01:28;;;;;;;38.28;21.83;;;;;;;10.34;74.64;94867.72;5072206;28;20048;-71
2021/11/08 02:03:54;;;;;;;37.65;21.33;;;;;;;10.39;74.63;94882.00;5073348;28;20025;-72
2021/11/08 02:06:20;;;;;;;32.97;19.77;;;;;;;10.41;74.85;94874.06;5073433;28;20392;-72
2021/11/08 02:08:45;;;;;;;31.13;20.60;;;;;;;10.36;74.45;94861.44;5055461;28;20021;-71
2021/11/08 02:11:11;;;;;;;32.50;19.75;;;;;;;10.40;74.27;94862.03;5055248;28;20389;-72
2021/11/08 02:13:37;;;;;;;30.20;18.90;;;;;;;10.43;74.12;94862.59;5073194;28;20414;-72
2021/11/08 02:16:03;;;;;;;32.10;19.85;;;;;;;10.40;74.23;94873.25;5071900;28;20031;-72
2021/11/08 02:18:30;;;;;;;35.53;21.63;;;;;;;10.40;74.51;94877.63;5058681;28;20027;-72
2021/11/08 02:20:56;;;;;;;34.50;20.42;;;;;;;10.51;74.33;94872.38;5092335;28;20043;-72
2021/11/08 02:23:23;;;;;;;35.88;20.30;;;;;;;10.58;74.16;94877.88;5075320;28;20042;-73
2021/11/08 02:25:49;;;;;;;29.58;19.02;;;;;;;10.58;74.06;94875.28;5090949;28;20583;-72
2021/11/08 02:28:17;;;;;;;32.03;18.50;;;;;;;10.60;73.84;94866.41;5091845;28;20078;-72
2021/11/08 02:30:44;;;;;;;30.42;17.90;;;;;;;10.44;73.52;94851.25;5075189;28;20034;-72
2021/11/08 02:33:11;;;;;;;34.35;19.17;;;;;;;10.49;73.40;94861.28;5075511;28;20024;-72
2021/11/08 02:35:37;;;;;;;31.85;17.80;;;;;;;10.48;73.59;94875.22;5075283;28;20031;-72
2021/11/08 02:38:04;;;;;;;29.40;18.10;;;;;;;10.33;73.21;94866.06;5092004;28;20047;-71
2021/11/08 02:40:30;;;;;;;28.45;17.42;;;;;;;10.35;72.85;94872.78;5091626;28;20525;-71
2021/11/08 02:42:59;;;;;;;29.98;17.73;;;;;;;10.26;72.69;94874.31;5074905;28;20054;-72
2021/11/08 02:45:25;;;;;;;27.77;16.38;;;;;;;10.19;72.90;94878.34;5091445;28;20039;-72
2021/11/08 02:47:51;;;;;;;29.15;16.42;;;;;;;10.07;72.61;94862.00;5058231;28;20041;-71
2021/11/08 02:50:17;;;;;;;28.25;18.50;;;;;;;9.98;72.81;94862.72;5074524;28;20040;-71
2021/11/08 02:52:44;;;;;;;25.80;16.42;;;;;;;9.95;72.80;94867.34;5091616;28;20105;-71
2021/11/08 02:55:09;;;;;;;24.67;15.43;;;;;;;9.88;72.77;94858.38;5092611;28;20417;-72
2021/11/08 02:57:36;;;;;;;27.02;16.73;;;;;;;9.79;72.79;94855.56;5092959;28;20032;-72
2021/11/08 03:00:06;;;;;;;27.27;15.98;;;;;;;9.68;72.64;94849.59;5091143;28;20097;-71
2021/11/08 03:02:35;;;;;;;30.27;16.90;;;;;;;9.63;72.90;94860.31;5091334;28;20097;-71
2021/11/08 03:05:01;;;;;;;29.73;17.10;;;;;;;9.54;73.14;94843.72;5091099;28;20028;-72
2021/11/08 03:07:30;;;;;;;26.00;17.35;;;;;;;9.53;72.98;94841.25;5091160;28;20086;-71
2021/11/08 03:09:58;;;;;;;30.20;17.20;;;;;;;9.49;73.60;94839.81;5092410;28;20032;-71
2021/11/08 03:12:29;;;;;;;31.25;16.13;;;;;;;9.50;74.17;94831.09;5074551;28;20127;-71
2021/11/08 03:17:34;;;;;;;31.85;17.13;;;;;;;9.53;74.26;94830.88;5075529;28;20044;-71
2021/11/08 03:20:00;;;;;;;31.50;18.20;;;;;;;9.56;74.32;94830.63;5074840;28;20029;-71
2021/11/08 03:22:31;;;;;;;36.65;20.80;;;;;;;9.54;74.06;94820.38;5070745;28;20460;-71
2021/11/08 03:25:00;;;;;;;45.17;26.52;;;;;;;9.59;74.42;94830.38;5054604;28;20032;-71
2021/11/08 03:30:27;;;;;;;43.35;25.70;;;;;;;9.52;74.77;94821.44;5057829;28;20032;-71
2021/11/08 03:32:54;;;;;;;42.60;24.98;;;;;;;9.47;75.02;94816.63;5070685;28;20032;-71
2021/11/08 03:35:21;;;;;;;41.47;26.15;;;;;;;9.50;75.71;94820.72;5037240;28;20036;-71
2021/11/08 03:37:47;;;;;;;59.13;31.42;;;;;;;9.47;75.75;94823.56;5037209;28;20575;-71
2021/11/08 03:40:19;;;;;;;49.53;32.80;;;;;;;9.40;75.64;94838.78;5070194;28;20125;-72
2021/11/08 03:42:45;;;;;;;43.30;28.67;;;;;;;9.38;75.64;94825.91;5053967;28;20482;-71
2021/11/08 03:45:11;;;;;;;45.10;25.80;;;;;;;9.36;75.30;94822.66;5070277;28;20028;-72
2021/11/08 03:47:37;;;;;;;42.83;24.95;;;;;;;9.39;75.25;94837.97;5037127;28;20044;-72
2021/11/08 03:50:07;;;;;;;32.33;20.70;;;;;;;9.36;75.07;94845.13;5053374;28;20400;-71
2021/11/08 03:52:33;;;;;;;30.70;18.85;;;;;;;9.27;74.71;94836.28;5070209;28;20032;-70
2021/11/08 03:54:58;;;;;;;35.88;19.80;;;;;;;9.18;74.71;94824.06;5071240;28;20055;-71
2021/11/08 03:57:24;;;;;;;31.42;18.33;;;;;;;9.19;74.60;94830.88;5070318;28;20033;-71
2021/11/08 03:59:49;;;;;;;29.13;18.02;;;;;;;9.04;74.41;94824.28;5053293;28;20442;-71
2021/11/08 04:02:15;;;;;;;35.80;18.95;;;;;;;9.02;74.47;94821.81;5070244;28;20391;-72
2021/11/08 04:04:41;;;;;;;30.40;16.52;;;;;;;9.00;74.72;94818.53;5071091;28;20035;-71
2021/11/08 04:07:06;;;;;;;29.77;16.25;;;;;;;8.95;74.82;94808.50;5070963;28;20041;-70
2021/11/08 04:09:32;;;;;;;28.30;15.65;;;;;;;8.95;74.77;94815.47;5060143;28;20071;-70
2021/11/08 04:11:57;;;;;;;21.27;13.68;;;;;;;8.91;74.49;94817.47;5070629;28;20036;-69
2021/11/08 04:14:25;;;;;;;29.08;17.38;;;;;;;8.87;74.93;94823.00;5052291;28;20592;-69
2021/11/08 04:16:50;;;;;;;40.70;25.50;;;;;;;8.78;75.15;94821.94;5052216;28;20071;-70
2021/11/08 04:19:16;;;;;;;38.67;23.48;;;;;;;8.69;75.14;94820.00;5078840;28;20456;-71
2021/11/08 04:21:42;;;;;;;39.25;22.83;;;;;;;8.64;74.91;94825.56;5089312;28;20089;-70
2021/11/08 04:24:08;;;;;;;41.33;23.05;;;;;;;8.65;75.66;94826.38;5087459;28;20147;-70
2021/11/08 04:26:35;;;;;;;42.58;24.80;;;;;;;8.61;76.11;94824.94;5087843;28;20502;-70
2021/11/08 04:29:02;;;;;;;42.95;23.92;;;;;;;8.62;75.93;94839.56;5088909;28;20020;-70
2021/11/08 04:31:29;;;;;;;38.45;23.48;;;;;;;8.60;76.43;94834.47;5089736;28;20032;-70
2021/11/08 04:34:01;;;;;;;47.72;25.77;;;;;;;8.64;76.72;94828.13;5072349;28;20028;-70
2021/11/08 04:36:48;;;;;;;37.03;20.67;;;;;;;8.64;76.89;94829.91;5073609;28;20039;-69
2021/11/08 04:39:26;;;;;;;27.77;15.90;;;;;;;8.65;76.26;94832.38;5088146;28;20063;-69
2021/11/08 04:52:26;;;;;;;26.83;16.42;;;;;;;8.65;76.89;94834.97;5087892;28;20479;-70
2021/11/08 05:32:19;;;;;;;78.05;43.80;;;;;;;8.64;77.06;94837.69;5093539;28;20040;-74
2021/11/08 05:34:45;;;;;;;65.10;38.13;;;;;;;8.69;76.98;94832.97;5076429;28;20036;-74
2021/11/08 05:37:10;;;;;;;75.13;43.70;;;;;;;8.57;77.36;94834.69;5075484;28;20078;-74
2021/11/08 05:39:43;;;;;;;63.03;38.05;;;;;;;8.49;77.69;94827.50;5094626;28;20036;-74
2021/11/08 05:42:09;;;;;;;63.72;36.47;;;;;;;8.48;77.49;94818.09;5077142;28;20075;-73
2021/11/08 05:44:37;;;;;;;81.50;46.50;;;;;;;8.59;77.64;94832.00;5079055;28;20035;-75
2021/11/08 05:47:03;;;;;;;79.82;49.67;;;;;;;8.63;77.46;94838.59;5043565;28;20089;-74
2021/11/08 05:49:29;;;;;;;72.65;43.60;;;;;;;8.42;77.13;94803.03;5080468;28;20024;-77
2021/11/08 05:51:54;;;;;;;74.15;43.58;;;;;;;8.62;77.38;94830.00;5055620;28;20032;-79
2021/11/08 05:54:20;;;;;;;117.65;62.20;;;;;;;8.61;77.19;94827.53;5045976;28;20449;-76
2021/11/08 06:51:05;;;;;;;;;;;;;;;8.95;77.25;94882.81;5076606;28;20047;-71
2021/11/08 06:53:32;;;;;;;68.72;41.10;;;;;;;8.83;76.95;94857.81;5074421;28;20305;-71
2021/11/08 06:55:58;;;;;;;60.30;37.17;;;;;;;9.03;77.52;94875.31;5074535;28;20055;-71
2021/11/08 06:58:26;;;;;;;61.67;36.78;;;;;;;9.12;78.19;94868.59;5091285;28;20397;-72
2021/11/08 07:00:52;;;;;;;66.68;40.70;;;;;;;9.16;78.27;94865.66;5091150;28;20052;-71
2021/11/08 07:03:17;;;;;;;70.70;43.25;;;;;;;9.34;77.55;94868.59;5074555;28;20113;-72
2021/11/08 07:05:42;;;;;;;69.28;42.00;;;;;;;9.43;78.68;94842.91;5092233;28;20028;-71
2021/11/08 07:08:10;;;;;;;74.97;45.17;;;;;;;9.78;79.55;94856.53;5074065;28;20056;-71
2021/11/08 07:10:35;;;;;;;79.97;49.45;;;;;;;10.18;81.76;94863.72;5074420;28;20117;-71
2021/11/08 07:13:01;;;;;;;86.78;48.92;;;;;;;10.54;82.77;94864.31;5090291;28;20092;-71
2021/11/08 07:15:26;;;;;;;104.97;58.22;;;;;;;11.04;85.83;94851.50;5092067;28;20035;-71
2021/11/08 07:17:52;;;;;;;86.78;49.67;;;;;;;11.39;82.96;94855.50;5057527;28;20557;-71
2021/11/08 07:20:18;;;;;;;121.13;62.25;;;;;;;11.80;85.76;94864.13;5090770;28;20031;-72
2021/11/08 07:22:44;;;;;;;96.20;56.35;;;;;;;12.21;85.56;94851.91;5090985;28;20461;-72
2021/11/08 07:25:09;;;;;;;85.22;50.78;;;;;;;12.47;83.21;94849.56;5091813;28;20052;-71
2021/11/08 07:27:35;;;;;;;70.57;45.00;;;;;;;12.84;77.33;94849.69;5092214;28;20024;-71
2021/11/08 07:30:00;;;;;;;68.15;40.78;;;;;;;13.00;73.97;94837.84;5081449;28;20032;-71
2021/11/08 07:32:26;;;;;;;65.00;38.55;;;;;;;13.22;72.30;94839.28;5052683;28;20198;-72
2021/11/08 07:34:52;;;;;;;56.70;36.70;;;;;;;13.48;70.17;94836.88;5071459;28;20025;-72
2021/11/08 07:37:18;;;;;;;55.45;36.10;;;;;;;13.56;68.63;94829.16;5053741;28;20056;-71
2021/11/08 07:39:43;;;;;;;52.38;34.45;;;;;;;13.64;66.57;94834.47;5053606;28;20339;-72
2021/11/08 07:42:09;;;;;;;58.13;37.10;;;;;;;13.51;65.08;94813.09;5070306;28;20131;-72
2021/11/08 07:44:34;;;;;;;58.03;35.30;;;;;;;13.51;65.24;94827.00;5070021;28;20028;-72
2021/11/08 07:47:00;;;;;;;47.33;30.75;;;;;;;13.54;66.05;94831.91;5053425;28;20070;-72
2021/11/08 07:49:25;;;;;;;49.08;32.28;;;;;;;13.53;64.99;94813.78;5071195;28;20092;-72
2021/11/08 07:51:51;;;;;;;48.25;32.67;;;;;;;13.60;64.51;94823.50;5071494;28;20036;-72
2021/11/08 07:54:16;;;;;;;60.95;36.33;;;;;;;13.71;64.13;94824.28;5070038;28;20165;-72
2021/11/08 07:56:42;;;;;;;52.05;34.05;;;;;;;13.71;64.28;94827.72;5053402;28;20037;-72
2021/11/08 07:59:07;;;;;;;55.53;35.65;;;;;;;13.79;64.39;94819.97;5071354;28;20028;-72
2021/11/08 08:01:33;;;;;;;49.83;33.08;;;;;;;13.90;64.21;94816.34;5053132;28;20040;-72
2021/11/08 08:03:58;;;;;;;59.83;36.75;;;;;;;13.90;63.17;94811.13;5069793;28;20024;-72
2021/11/08 08:06:24;;;;;;;52.05;31.45;;;;;;;14.01;63.79;94816.13;5069584;28;20560;-72
2021/11/08 08:08:50;;;;;;;57.22;34.95;;;;;;;14.04;63.17;94804.53;5069860;28;20504;-72
2021/11/08 08:11:17;;;;;;;51.28;32.30;;;;;;;14.13;63.22;94816.72;5036628;28;20429;-72
2021/11/08 08:13:43;;;;;;;57.90;32.28;;;;;;;14.24;62.55;94808.66;5053139;28;20040;-72
2021/11/08 08:16:10;;;;;;;46.83;29.25;;;;;;;14.39;61.42;94813.34;5053080;28;20024;-72
2021/11/08 08:18:37;;;;;;;44.50;27.70;;;;;;;14.50;62.20;94813.13;5053002;28;20028;-72
2021/11/08 08:21:03;;;;;;;37.95;25.10;;;;;;;14.66;61.69;94809.84;5069539;28;20566;-72
2021/11/08 08:23:28;;;;;;;44.17;24.80;;;;;;;14.81;59.95;94807.50;5052446;28;20192;-72
2021/11/08 08:25:54;;;;;;;37.20;23.27;;;;;;;14.83;61.04;94797.72;5068971;28;20039;-73
2021/11/08 08:28:19;;;;;;;38.30;22.85;;;;;;;15.04;60.74;94797.34;5069557;28;20109;-72
2021/11/08 08:30:45;;;;;;;36.70;25.30;;;;;;;15.16;61.02;94804.78;5052780;28;20509;-72
2021/11/08 08:33:10;;;;;;;38.08;23.42;;;;;;;15.38;61.62;94820.94;5053004;28;20033;-72
2021/11/08 08:35:42;;;;;;;32.67;18.67;;;;;;;15.54;61.39;94815.75;5069480;28;20028;-72
2021/11/08 08:38:08;;;;;;;29.35;17.63;;;;;;;15.73;59.79;94811.28;5071231;28;20032;-72
2021/11/08 08:40:34;;;;;;;32.33;18.60;;;;;;;15.81;56.75;94809.50;5069400;28;20024;-73
2021/11/08 08:42:59;;;;;;;31.77;19.25;;;;;;;15.79;56.66;94802.78;5052911;28;20123;-72
2021/11/08 08:45:25;;;;;;;32.13;17.67;;;;;;;15.94;57.06;94814.31;5052423;28;20033;-73
2021/11/08 08:47:50;;;;;;;29.65;17.17;;;;;;;15.95;56.72;94794.97;5052875;28;20025;-72
2021/11/08 08:50:16;;;;;;;23.33;13.98;;;;;;;16.09;57.09;94804.81;5069341;28;20473;-72
2021/11/08 08:52:41;;;;;;;30.27;17.63;;;;;;;16.29;55.80;94810.59;5069482;28;20032;-72
2021/11/08 08:55:07;;;;;;;29.30;17.23;;;;;;;16.37;56.02;94798.47;5070477;28;20041;-72
2021/11/08 08:57:32;;;;;;;24.20;15.48;;;;;;;16.54;56.80;94803.56;5069461;28;20037;-72
2021/11/08 08:59:58;;;;;;;24.67;15.80;;;;;;;16.69;56.61;94797.69;5068984;28;20045;-72
2021/11/08 09:02:23;;;;;;;27.65;15.35;;;;;;;16.83;56.67;94793.59;5069399;28;20029;-72
2021/11/08 09:04:48;;;;;;;22.13;13.25;;;;;;;17.01;56.36;94799.47;5069109;28;20021;-72
2021/11/08 09:07:15;;;;;;;20.83;11.48;;;;;;;17.10;55.27;94781.91;5069292;28;20036;-72
2021/11/08 09:09:41;;;;;;;22.77;11.77;;;;;;;17.26;55.31;94794.97;5069145;28;20028;-72
2021/11/08 09:12:07;;;;;;;25.52;12.75;;;;;;;17.37;54.73;94788.56;5035881;28;20068;-72
2021/11/08 09:14:33;;;;;;;19.58;11.68;;;;;;;17.52;54.49;94786.84;5069091;28;20551;-73
2021/11/08 09:16:59;;;;;;;24.05;11.70;;;;;;;17.70;53.46;94778.75;5052576;28;20033;-73
2021/11/08 09:19:24;;;;;;;37.33;17.20;;;;;;;17.80;51.10;94776.75;5035686;28;20441;-73
2021/11/08 09:21:50;;;;;;;31.73;15.00;;;;;;;17.89;50.99;94781.97;5052516;28;20024;-72
2021/11/08 09:24:15;;;;;;;29.73;15.88;;;;;;;17.92;49.66;94779.00;5070155;28;20036;-73
2021/11/08 09:26:41;;;;;;;28.90;15.82;;;;;;;17.96;50.61;94775.81;5052224;28;20028;-72
2021/11/08 09:29:06;;;;;;;28.40;13.48;;;;;;;17.98;49.61;94781.75;5035644;28;20041;-73
2021/11/08 09:31:32;;;;;;;24.17;16.65;;;;;;;17.86;50.26;94778.69;5035583;28;20036;-72
2021/11/08 09:34:03;;;;;;;26.55;14.65;;;;;;;17.91;50.57;94777.34;5068968;28;20103;-73
2021/11/08 09:36:31;;;;;;;21.45;12.55;;;;;;;17.95;51.03;94768.13;5055429;28;20032;-73
2021/11/08 09:38:58;;;;;;;28.30;17.05;;;;;;;18.03;51.15;94771.53;5072573;28;20028;-73
2021/11/08 09:41:32;;;;;;;31.02;17.85;;;;;;;18.03;51.58;94768.09;5072435;28;20120;-73
2021/11/08 09:43:59;;;;;;;32.53;19.05;;;;;;;18.09;51.53;94772.66;5072477;28;20032;-73
2021/11/08 09:46:25;;;;;;;28.42;18.38;;;;;;;18.15;51.79;94769.31;5039048;28;20564;-73
2021/11/08 09:48:50;;;;;;;30.23;17.73;;;;;;;18.20;51.46;94760.91;5055871;28;20029;-72
2021/11/08 09:51:16;;;;;;;26.13;17.60;;;;;;;18.17;51.47;94758.63;5055528;28;20035;-73
2021/11/08 09:53:42;;;;;;;30.05;17.45;;;;;;;18.23;51.87;94753.47;5055739;28;20029;-73
2021/11/08 09:56:07;;;;;;;32.30;16.35;;;;;;;18.35;51.87;94737.28;5073504;28;20143;-73
2021/11/08 09:58:35;;;;;;;27.70;16.65;;;;;;;18.47;51.69;94738.50;5072527;28;20029;-73
2021/11/08 10:01:05;;;;;;;34.15;17.90;;;;;;;18.62;51.28;94744.63;5072603;28;20132;-72
2021/11/08 10:03:33;;;;;;;32.53;18.67;;;;;;;18.77;51.19;94735.97;5056197;28;20502;-73
2021/11/08 10:05:59;;;;;;;35.13;18.15;;;;;;;18.89;51.21;94734.56;5072431;28;20061;-73
2021/11/08 10:08:33;;;;;;;28.08;16.95;;;;;;;19.06;51.57;94738.66;5055799;28;20036;-73
2021/11/08 10:11:02;;;;;;;38.17;19.27;;;;;;;19.13;49.73;94733.47;5072646;28;20570;-73
2021/11/08 10:13:28;;;;;;;27.88;17.23;;;;;;;19.15;50.28;94736.75;5056026;28;20040;-73
2021/11/08 10:15:57;;;;;;;30.83;18.42;;;;;;;19.10;49.90;94736.47;5072302;28;20407;-73
2021/11/08 10:18:22;;;;;;;32.95;18.83;;;;;;;19.05;49.18;94728.28;5041632;28;20028;-73
2021/11/08 10:20:50;;;;;;;39.90;21.52;;;;;;;19.03;49.01;94720.59;5063389;28;20027;-73
2021/11/08 10:23:18;;;;;;;32.65;18.70;;;;;;;19.09;49.16;94733.03;5072422;28;20025;-73
2021/11/08 10:25:44;;;;;;;29.60;17.02;;;;;;;19.13;49.39;94720.31;5072181;28;20033;-73
2021/11/08 10:28:11;;;;;;;36.47;20.48;;;;;;;19.23;49.29;94720.03;5058387;28;20024;-72
2021/11/08 10:30:38;;;;;;;37.53;20.00;;;;;;;19.31;49.69;94707.59;5081614;28;20062;-73
2021/11/08 10:33:25;;;;;;;34.45;19.60;;;;;;;19.40;49.67;94706.47;5071851;28;20033;-71
2021/11/08 10:35:55;;;;;;;39.97;20.63;;;;;;;19.43;49.89;94707.94;5071862;28;20127;-71
2021/11/08 10:38:22;;;;;;;37.43;19.23;;;;;;;19.51;49.90;94699.94;5071951;28;20032;-71
2021/11/08 10:41:00;;;;;;;32.35;19.92;;;;;;;19.55;49.74;94703.00;5079128;28;20371;-73
2021/11/08 10:43:33;;;;;;;25.67;16.60;;;;;;;19.58;49.81;94698.19;5058353;28;20071;-72
2021/11/08 10:46:01;;;;;;;33.13;16.38;;;;;;;19.60;50.04;94696.19;5075696;28;20036;-72
2021/11/08 10:48:30;;;;;;;25.88;16.52;;;;;;;19.64;49.50;94688.75;5058056;28;20031;-72
2021/11/08 10:50:56;;;;;;;32.85;19.63;;;;;;;19.68;49.11;94682.13;5075085;28;20115;-73
2021/11/08 10:53:22;;;;;;;34.60;21.42;;;;;;;19.77;49.05;94683.63;5074942;28;20482;-73
2021/11/08 10:55:55;;;;;;;33.60;18.42;;;;;;;19.81;48.90;94678.81;5092238;28;20031;-73
2021/11/08 10:58:22;;;;;;;31.08;17.58;;;;;;;19.89;49.10;94683.94;5074171;28;20035;-73
2021/11/08 11:00:57;;;;;;;29.83;17.63;;;;;;;19.97;48.93;94691.72;5091790;28;20160;-73
2021/11/08 11:03:24;;;;;;;36.33;20.30;;;;;;;20.01;48.36;94689.56;5091786;28;20028;-73
2021/11/08 11:06:04;;;;;;;32.08;19.58;;;;;;;20.04;48.20;94687.34;5091389;28;20027;-73
2021/11/08 11:08:31;;;;;;;31.55;20.40;;;;;;;20.08;48.24;94688.59;5091381;28;20039;-73
2021/11/08 11:10:59;;;;;;;27.70;18.63;;;;;;;20.13;48.15;94695.13;5074726;28;20024;-73
2021/11/08 11:13:25;;;;;;;29.33;17.48;;;;;;;20.19;47.34;94683.81;5075015;28;20028;-73
2021/11/08 11:16:03;;;;;;;29.08;15.68;;;;;;;20.29;47.16;94694.88;5091605;28;20116;-73
2021/11/08 11:18:34;;;;;;;26.83;17.30;;;;;;;20.30;45.08;94699.13;5075930;28;20039;-73
2021/11/08 11:21:20;;;;;;;;;;;;;;;20.31;45.12;94692.88;5074836;28;20024;-73
2021/11/08 11:23:49;;;;;;;30.92;16.15;;;;;;;20.27;44.82;94691.59;5092129;28;19920;-73
2021/11/08 11:26:17;;;;;;;31.45;17.80;;;;;;;20.35;44.42;94688.84;5091219;28;20039;-73
2021/11/08 11:28:45;;;;;;;34.95;15.98;;;;;;;20.28;45.28;94682.69;5074625;28;20035;-73
2021/11/08 11:31:21;;;;;;;28.65;17.40;;;;;;;20.40;45.68;94704.09;5092444;28;20104;-73
2021/11/08 11:33:47;;;;;;;36.95;17.88;;;;;;;20.36;46.03;94695.75;5075073;28;20024;-73
2021/11/08 11:36:17;;;;;;;30.65;17.13;;;;;;;20.30;45.73;94691.22;5092237;28;20031;-73
2021/11/08 11:38:59;;;;;;;29.87;16.90;;;;;;;20.26;45.81;94695.25;5074842;28;20028;-73
2021/11/08 11:41:29;;;;;;;37.13;19.85;;;;;;;20.19;45.93;94699.66;5090840;28;20024;-73
2021/11/08 11:44:00;;;;;;;34.95;18.33;;;;;;;20.13;46.16;94687.22;5074325;28;20036;-73
2021/11/08 11:46:28;;;;;;;34.72;20.73;;;;;;;20.12;45.84;94701.44;5074591;28;20036;-73
2021/11/08 11:48:54;;;;;;;32.90;18.63;;;;;;;20.03;46.30;94701.53;5090554;28;20035;-73
2021/11/08 11:51:22;;;;;;;40.85;19.13;;;;;;;19.97;46.59;94697.00;5073919;28;20032;-73
2021/11/08 11:53:48;;;;;;;37.15;19.15;;;;;;;19.94;46.63;94707.91;5074199;28;20119;-73
2021/11/08 11:56:14;;;;;;;36.13;19.90;;;;;;;20.00;45.75;94701.09;5073777;28;20040;-73
2021/11/08 11:58:40;;;;;;;43.22;21.05;;;;;;;19.97;46.14;94698.81;5090357;28;20089;-73
2021/11/08 12:01:08;;;;;;;40.25;20.85;;;;;;;19.86;46.61;94695.69;5073697;28;20048;-73
2021/11/08 12:03:33;;;;;;;41.33;22.02;;;;;;;19.94;46.68;94701.84;5057179;28;20068;-72
2021/11/08 12:05:59;;;;;;;40.58;23.42;;;;;;;19.88;47.29;94692.06;5090368;28;20052;-73
2021/11/08 12:08:37;;;;;;;42.92;22.77;;;;;;;19.91;46.77;94696.94;5073624;28;20028;-73
2021/11/08 12:11:03;;;;;;;41.40;23.15;;;;;;;19.81;46.99;94687.53;5074161;28;20073;-73
2021/11/08 12:13:30;;;;;;;43.00;27.25;;;;;;;19.72;47.30;94683.38;5090562;28;20035;-73
2021/11/08 12:15:57;;;;;;;37.65;22.90;;;;;;;19.81;47.25;94692.00;5073601;28;20027;-73
2021/11/08 12:18:22;;;;;;;39.40;22.10;;;;;;;19.84;47.56;94689.78;5073702;28;20034;-73
2021/11/08 12:20:49;;;;;;;41.90;21.95;;;;;;;19.90;47.78;94698.78;5073382;28;20107;-73
2021/11/08 12:23:17;;;;;;;44.78;23.73;;;;;;;19.95;47.90;94692.94;5090613;28;20047;-73
2021/11/08 12:25:43;;;;;;;46.40;25.15;;;;;;;19.97;47.96;94691.72;5091462;28;20117;-73
2021/11/08 12:28:11;;;;;;;48.15;25.92;;;;;;;19.96;47.96;94692.75;5073816;28;20035;-73
2021/11/08 12:30:41;;;;;;;57.33;29.48;;;;;;;20.00;47.66;94707.19;5073331;28;20038;-73
2021/11/08 12:33:26;;;;;;;50.75;28.08;;;;;;;20.00;46.37;94699.28;5090619;28;20038;-73
2021/11/08 12:35:51;;;;;;;46.35;26.80;;;;;;;19.93;47.09;94702.84;5091557;28;20082;-73
2021/11/08 12:38:21;;;;;;;48.03;25.85;;;;;;;19.89;47.26;94701.59;5092160;28;20036;-73
2021/11/08 12:40:47;;;;;;;56.35;28.42;;;;;;;19.84;47.04;94702.16;5073451;28;20035;-73
2021/11/08 12:43:26;;;;;;;51.78;27.05;;;;;;;19.72;47.50;94687.81;5091590;28;20040;-73
2021/11/08 12:45:51;;;;;;;62.60;30.40;;;;;;;19.76;47.27;94703.09;5073542;28;20031;-73
2021/11/08 12:48:17;;;;;;;57.75;32.13;;;;;;;19.71;47.28;94680.94;5090460;28;20036;-73
2021/11/08 12:50:46;;;;;;;57.30;31.10;;;;;;;19.63;47.68;94674.72;5056625;28;20024;-73
2021/11/08 12:53:22;;;;;;;59.10;30.20;;;;;;;19.72;47.11;94683.38;5073831;28;20028;-73
2021/11/08 12:55:48;;;;;;;51.75;28.27;;;;;;;19.83;45.76;94682.88;5073112;28;20032;-74
2021/11/08 12:58:13;;;;;;;54.35;27.58;;;;;;;19.93;46.02;94690.47;5090284;28;20086;-73
2021/11/08 13:00:41;;;;;;;46.67;25.92;;;;;;;19.94;45.04;94691.28;5089941;28;20055;-73
2021/11/08 13:03:15;;;;;;;35.17;21.20;;;;;;;19.97;45.32;94699.63;5073788;28;20119;-73
2021/11/08 13:05:42;;;;;;;54.60;27.17;;;;;;;19.99;45.79;94699.47;5058583;28;20096;-73
2021/11/08 13:08:33;;;;;;;38.53;24.45;;;;;;;19.98;46.93;94698.66;5089940;28;20040;-73
2021/11/08 13:11:11;;;;;;;34.35;19.00;;;;;;;19.98;47.22;94695.22;5089257;28;20046;-73
2021/11/08 13:13:42;;;;;;;40.60;21.92;;;;;;;19.95;47.02;94693.75;5095249;28;20032;-73